KAKQ/AKQ METAR and TAF weather

Enter ICAO airport designator
Station Type Date Time Source
KAKQ METAR 2021/05/12 00:54 UTC NOAA

KAKQ 120054Z AUTO 00000KT 10SM CLR 14/10 A3009 RMK AO2 SLP189 T01390100


Station Type Date Time Source
KAKQ Decoded METAR 2021/05/12 00:54 UTC NOAA

WAKEFIELD MUNICIPAL AIRPOR, VA, United States (KAKQ) 36-59N 077-00W 33M
May 11, 2021 - 08:54 PM EDT / 2021.05.12 0054 UTC
Wind: Calm:0
Visibility: 10 mile(s):0
Sky conditions: clear
Temperature: 57.0 F (13.9 C)
Dew Point: 50.0 F (10.0 C)
Relative Humidity: 77%
Pressure (altimeter): 30.09 in. Hg (1018 hPa)
ob: KAKQ 120054Z AUTO 00000KT 10SM CLR 14/10 A3009 RMK AO2 SLP189 T01390100
cycle: 1

Station Type Date Time Source
KAKQ TAF UTC NOAA

Error!

Example: see airport list